Terminal Aerodrome Forecast
Issued by NWS Louisville, KY

Home | Current Version | Previous Version | Text Only | Print | Product List | Glossary On
Versions: 1 2 3 4 5 6 7 8 9 10 11 12 13 14 15 16 17 18
000
FTUS43 KLMK 200100 AAA
TAFSDF
TAF AMD
KSDF 200124Z 2001/2106 20006KT P6SM BKN150
     FM200700 24005KT 6SM HZ BKN080
     FM201300 26008KT P6SM SCT040
     FM210000 20004KT P6SM SCT250=

USA.gov is the U.S. government's official web portal to all federal, state and local government web resources and services.